createdAt,value
2018-10-16T00:01:31.923Z,11.20
2018-10-16T00:04:02.606Z,11.16
2018-10-16T00:06:33.376Z,11.25
2018-10-16T00:09:04.068Z,11.22
2018-10-16T00:11:34.745Z,11.20
2018-10-16T00:14:05.442Z,11.18
2018-10-16T00:16:36.106Z,11.19
2018-10-16T00:19:06.832Z,11.22
2018-10-16T00:21:37.777Z,11.14
2018-10-16T00:24:08.456Z,11.15
2018-10-16T00:26:39.515Z,11.05
2018-10-16T00:29:10.180Z,10.98
2018-10-16T00:31:40.865Z,10.91
2018-10-16T00:34:11.481Z,11.00
2018-10-16T00:36:42.322Z,11.07
2018-10-16T00:39:14.527Z,10.96
2018-10-16T00:41:45.270Z,10.87
2018-10-16T00:44:15.868Z,10.83
2018-10-16T00:46:46.563Z,10.91
2018-10-16T00:49:17.178Z,10.80
2018-10-16T00:51:47.921Z,10.79
2018-10-16T00:54:18.570Z,10.75
2018-10-16T00:56:49.256Z,10.80
2018-10-16T00:59:19.850Z,10.76
2018-10-16T01:01:50.515Z,10.74
2018-10-16T01:04:21.540Z,10.70
2018-10-16T01:06:52.560Z,10.76
2018-10-16T01:09:23.288Z,10.93
2018-10-16T01:11:53.940Z,11.06
2018-10-16T01:14:24.580Z,11.06
2018-10-16T01:16:55.697Z,11.05
2018-10-16T01:19:26.339Z,10.95
2018-10-16T01:21:57.382Z,10.89
2018-10-16T01:24:28.310Z,10.94
2018-10-16T01:26:59.024Z,10.98
2018-10-16T01:29:29.692Z,11.00
2018-10-16T01:32:00.661Z,11.00
2018-10-16T01:34:31.433Z,11.01
2018-10-16T01:37:02.065Z,11.04
2018-10-16T01:39:32.799Z,11.02
2018-10-16T01:42:03.437Z,11.07
2018-10-16T01:44:35.167Z,11.09
2018-10-16T01:47:06.025Z,11.16
2018-10-16T01:49:37.379Z,11.25
2018-10-16T01:52:08.079Z,11.35
2018-10-16T01:54:38.717Z,11.30
2018-10-16T01:57:09.461Z,11.30
2018-10-16T01:59:40.445Z,11.36
2018-10-16T02:02:11.113Z,11.31
2018-10-16T02:04:41.811Z,11.18
2018-10-16T02:07:13.047Z,11.12
2018-10-16T02:09:44.563Z,11.07
2018-10-16T02:12:15.217Z,11.11
2018-10-16T02:14:45.940Z,11.09
2018-10-16T02:17:16.579Z,11.17
2018-10-16T02:19:47.762Z,11.17
2018-10-16T02:22:18.558Z,11.17
2018-10-16T02:24:49.184Z,11.18
2018-10-16T02:27:19.891Z,11.21
2018-10-16T02:29:50.625Z,11.14
2018-10-16T02:32:21.287Z,11.19
2018-10-16T02:34:52.011Z,11.17
2018-10-16T02:37:22.675Z,11.27
2018-10-16T02:39:53.360Z,11.40
2018-10-16T02:42:24.028Z,11.48
2018-10-16T02:44:54.688Z,11.45
2018-10-16T02:47:26.502Z,11.39
2018-10-16T02:49:57.146Z,11.45
2018-10-16T02:52:27.831Z,11.40
2018-10-16T02:54:59.100Z,11.36
2018-10-16T02:57:29.800Z,11.34
2018-10-16T03:00:00.769Z,11.39
2018-10-16T03:02:31.516Z,11.48
2018-10-16T03:05:02.574Z,11.42
2018-10-16T03:07:33.233Z,11.37
2018-10-16T03:10:04.073Z,11.37
2018-10-16T03:12:34.674Z,11.50
2018-10-16T03:15:06.273Z,11.62
2018-10-16T03:17:36.916Z,11.59
2018-10-16T03:20:07.837Z,11.53
2018-10-16T03:22:38.776Z,11.51
2018-10-16T03:25:12.023Z,11.59
2018-10-16T03:27:42.953Z,11.67
2018-10-16T03:30:13.961Z,11.74
2018-10-16T03:32:44.675Z,11.81
2018-10-16T03:35:15.352Z,11.83
2018-10-16T03:37:46.006Z,11.77
2018-10-16T03:40:16.776Z,11.80
2018-10-16T03:42:47.414Z,11.79
2018-10-16T03:45:18.100Z,11.72
2018-10-16T03:47:48.754Z,11.81
2018-10-16T03:50:19.443Z,11.79
2018-10-16T03:52:50.102Z,11.81
2018-10-16T03:55:21.121Z,11.82
2018-10-16T03:57:52.058Z,11.85
2018-10-16T04:00:22.712Z,11.89
2018-10-16T04:02:53.892Z,11.93
2018-10-16T04:05:24.546Z,11.96
2018-10-16T04:07:55.233Z,11.94
2018-10-16T04:10:25.941Z,11.93
2018-10-16T04:12:56.664Z,11.88
2018-10-16T04:15:27.353Z,11.86
2018-10-16T04:17:58.472Z,11.88
2018-10-16T04:20:29.145Z,12.03
2018-10-16T04:22:59.837Z,12.14
2018-10-16T04:25:30.399Z,12.06
2018-10-16T04:28:01.217Z,12.04
2018-10-16T04:30:31.927Z,12.05
2018-10-16T04:33:02.549Z,12.15
2018-10-16T04:35:33.190Z,12.14
2018-10-16T04:38:03.841Z,12.21
2018-10-16T04:40:34.623Z,12.26
2018-10-16T04:43:06.268Z,12.20
2018-10-16T04:45:36.808Z,12.15
2018-10-16T04:48:07.920Z,12.17
2018-10-16T04:50:38.872Z,12.29
2018-10-16T04:53:09.526Z,12.19
2018-10-16T04:55:40.537Z,12.17
2018-10-16T04:58:11.213Z,12.11
2018-10-16T05:00:41.858Z,12.10
2018-10-16T05:03:12.517Z,12.20
2018-10-16T05:05:43.193Z,12.23
2018-10-16T05:08:13.858Z,12.17
2018-10-16T05:10:44.485Z,12.19
2018-10-16T05:13:15.248Z,12.24
2018-10-16T05:15:45.838Z,12.29
2018-10-16T05:18:16.479Z,12.25
2018-10-16T05:20:47.104Z,12.29
2018-10-16T05:23:17.805Z,12.33
2018-10-16T05:25:48.451Z,12.36
2018-10-16T05:28:19.118Z,12.44
2018-10-16T05:30:50.125Z,12.55
2018-10-16T05:33:20.791Z,12.59
2018-10-16T05:35:52.077Z,12.51
2018-10-16T05:38:23.269Z,12.48
2018-10-16T05:40:54.047Z,12.48
2018-10-16T05:43:24.938Z,12.51
2018-10-16T05:45:55.570Z,12.62
2018-10-16T05:48:26.180Z,12.57
2018-10-16T05:50:56.942Z,12.62
2018-10-16T05:53:27.509Z,12.63
2018-10-16T05:56:06.342Z,12.60
2018-10-16T05:58:37.401Z,12.64
2018-10-16T06:01:08.064Z,12.64
2018-10-16T06:03:38.711Z,12.65
2018-10-16T06:06:09.898Z,12.68
2018-10-16T06:08:41.179Z,12.72
2018-10-16T06:11:11.784Z,12.72
2018-10-16T06:13:42.568Z,12.81
2018-10-16T06:16:13.140Z,12.81
2018-10-16T06:18:43.802Z,12.82
2018-10-16T06:21:14.451Z,12.83
2018-10-16T06:23:45.103Z,12.94
2018-10-16T06:26:16.145Z,12.98
2018-10-16T06:28:46.755Z,12.95
2018-10-16T06:31:17.820Z,12.90
2018-10-16T06:33:48.539Z,12.87
2018-10-16T06:36:19.133Z,12.85
2018-10-16T06:38:50.352Z,12.89
2018-10-16T06:41:21.135Z,12.96
2018-10-16T06:43:51.712Z,12.96
2018-10-16T06:46:22.339Z,13.00
2018-10-16T06:48:53.716Z,13.05
2018-10-16T06:51:24.234Z,13.11
2018-10-16T06:53:54.849Z,13.12
2018-10-16T06:56:25.553Z,13.21
2018-10-16T06:58:56.717Z,13.32
2018-10-16T07:01:27.921Z,13.36
2018-10-16T07:03:58.609Z,13.35
2018-10-16T07:06:29.279Z,13.35
2018-10-16T07:09:00.267Z,13.35
2018-10-16T07:11:31.118Z,13.35
2018-10-16T07:14:01.776Z,13.37
2018-10-16T07:16:32.577Z,13.36
2018-10-16T07:19:03.311Z,13.43
2018-10-16T07:21:34.128Z,13.46
2018-10-16T07:24:05.062Z,13.49
2018-10-16T07:26:35.611Z,13.55
2018-10-16T07:29:07.078Z,13.58
2018-10-16T07:31:37.809Z,13.56
2018-10-16T07:34:08.459Z,13.61
2018-10-16T07:36:39.641Z,13.66
2018-10-16T07:39:12.531Z,13.68
2018-10-16T07:41:43.614Z,13.68
2018-10-16T07:44:14.329Z,13.69
2018-10-16T07:46:45.009Z,13.70
2018-10-16T07:49:15.674Z,13.77
2018-10-16T07:51:46.309Z,13.82
2018-10-16T07:54:17.351Z,13.89
2018-10-16T07:56:48.256Z,13.95
2018-10-16T07:59:19.074Z,14.06
2018-10-16T08:01:49.714Z,14.12
2018-10-16T08:04:20.407Z,14.18
2018-10-16T08:06:51.037Z,14.29
2018-10-16T08:09:21.664Z,14.27
2018-10-16T08:11:52.801Z,14.30
2018-10-16T08:14:23.480Z,14.31
2018-10-16T08:16:54.087Z,14.37
2018-10-16T08:19:24.786Z,14.42
2018-10-16T08:21:55.738Z,14.57
2018-10-16T08:24:26.823Z,14.65
2018-10-16T08:26:57.966Z,14.76
2018-10-16T08:29:28.590Z,14.82
2018-10-16T08:31:59.289Z,14.89
2018-10-16T08:34:30.151Z,14.97
2018-10-16T08:37:01.325Z,15.02
2018-10-16T08:39:34.157Z,14.99
2018-10-16T08:42:30.028Z,14.99
2018-10-16T08:45:26.888Z,15.11
2018-10-16T08:48:33.294Z,15.14
2018-10-16T08:51:54.015Z,15.21
2018-10-16T08:54:24.834Z,15.25
2018-10-16T08:56:55.477Z,15.41
2018-10-16T08:59:26.266Z,15.50
2018-10-16T09:01:56.981Z,15.49
2018-10-16T09:04:28.108Z,15.61
2018-10-16T09:06:58.765Z,15.70
2018-10-16T09:09:29.606Z,15.82
2018-10-16T09:12:00.891Z,15.89
2018-10-16T09:14:31.903Z,15.95
2018-10-16T09:17:02.518Z,15.97
2018-10-16T09:19:33.591Z,16.11
2018-10-16T09:22:04.296Z,16.11
2018-10-16T09:24:35.050Z,16.16
2018-10-16T09:27:05.667Z,16.23
2018-10-16T09:29:36.311Z,16.31
2018-10-16T09:32:07.222Z,16.41
2018-10-16T09:34:37.849Z,16.48
2018-10-16T09:37:08.585Z,16.54
2018-10-16T09:39:39.271Z,16.62
2018-10-16T09:42:09.838Z,16.67
2018-10-16T09:44:40.819Z,16.75
2018-10-16T09:47:11.514Z,16.78
2018-10-16T09:49:42.225Z,16.91
2018-10-16T09:52:12.806Z,16.90
2018-10-16T09:54:43.418Z,17.06
2018-10-16T09:57:14.126Z,17.10
2018-10-16T09:59:44.815Z,17.13
2018-10-16T10:02:15.487Z,17.20
2018-10-16T10:04:46.146Z,17.24
2018-10-16T10:07:16.860Z,17.32
2018-10-16T10:09:47.493Z,17.32
2018-10-16T10:12:18.279Z,17.40
2018-10-16T10:14:49.020Z,17.49
2018-10-16T10:17:19.724Z,17.67
2018-10-16T10:19:50.384Z,17.66
2018-10-16T10:22:21.147Z,17.61
2018-10-16T10:24:52.061Z,17.62
2018-10-16T10:27:22.795Z,17.65
2018-10-16T10:29:53.512Z,17.69
2018-10-16T10:32:24.678Z,17.73
2018-10-16T10:34:55.349Z,17.79
2018-10-16T10:37:25.948Z,17.80
2018-10-16T10:39:57.538Z,17.84
2018-10-16T10:42:28.289Z,17.90
2018-10-16T10:44:58.954Z,17.91
2018-10-16T10:47:29.602Z,17.92
2018-10-16T10:50:00.379Z,17.97
2018-10-16T10:52:30.859Z,18.00
2018-10-16T10:55:01.521Z,18.09
2018-10-16T10:57:32.621Z,18.16
2018-10-16T11:00:03.314Z,18.22
2018-10-16T11:02:33.946Z,18.24
2018-10-16T11:05:04.562Z,18.25
2018-10-16T11:07:35.266Z,18.26
2018-10-16T11:10:06.316Z,18.23
2018-10-16T11:12:37.255Z,18.16
2018-10-16T11:15:08.935Z,18.12
2018-10-16T11:17:40.264Z,18.12
2018-10-16T11:20:13.323Z,18.12
2018-10-16T11:22:44.005Z,18.17
2018-10-16T11:25:14.989Z,18.16
2018-10-16T11:27:46.264Z,18.17
2018-10-16T11:30:17.147Z,18.16
2018-10-16T11:32:47.735Z,18.18
2018-10-16T11:35:18.340Z,18.18
2018-10-16T11:37:48.993Z,18.24
2018-10-16T11:40:19.623Z,18.30
2018-10-16T11:42:50.624Z,18.32
2018-10-16T11:45:21.305Z,18.38
2018-10-16T11:47:51.996Z,18.39
2018-10-16T11:50:26.772Z,18.43
2018-10-16T11:53:00.910Z,18.44
2018-10-16T11:55:32.196Z,18.46
2018-10-16T11:58:02.956Z,18.51
2018-10-16T12:00:33.650Z,18.46
2018-10-16T12:03:04.248Z,18.52
2018-10-16T12:05:35.025Z,18.53
2018-10-16T12:08:05.742Z,18.49
2018-10-16T12:10:36.363Z,18.50
2018-10-16T12:13:07.807Z,18.56
2018-10-16T12:15:39.740Z,18.61
2018-10-16T12:18:15.364Z,18.66
2018-10-16T12:21:21.290Z,18.67
2018-10-16T12:23:52.485Z,18.70
2018-10-16T12:26:23.639Z,18.75
2018-10-16T12:28:54.684Z,18.76
2018-10-16T12:31:25.804Z,18.83
2018-10-16T12:33:56.490Z,18.90
2018-10-16T12:36:27.107Z,18.92
2018-10-16T12:38:57.770Z,18.96
2018-10-16T12:41:28.664Z,18.97
2018-10-16T12:43:59.333Z,18.97
2018-10-16T12:46:30.027Z,18.94
2018-10-16T12:49:00.653Z,18.95
2018-10-16T12:51:31.303Z,18.96
2018-10-16T12:54:02.038Z,18.92
2018-10-16T12:56:32.632Z,18.97
2018-10-16T12:59:03.320Z,18.97
2018-10-16T13:01:34.090Z,19.00
2018-10-16T13:04:04.979Z,19.03
2018-10-16T13:06:35.738Z,19.10
2018-10-16T13:09:08.756Z,19.11
2018-10-16T13:11:39.644Z,19.15
2018-10-16T13:14:10.337Z,19.15
2018-10-16T13:16:41.333Z,19.14
2018-10-16T13:19:12.032Z,19.21
2018-10-16T13:21:42.992Z,19.25
2018-10-16T13:24:13.650Z,19.24
2018-10-16T13:26:44.240Z,19.25
2018-10-16T13:29:14.967Z,19.31
2018-10-16T13:31:45.496Z,19.42
2018-10-16T13:34:16.223Z,19.41
2018-10-16T13:36:46.868Z,19.48
2018-10-16T13:39:17.499Z,19.53
2018-10-16T13:41:48.386Z,19.51
2018-10-16T13:44:18.992Z,19.49
2018-10-16T13:46:49.652Z,19.52
2018-10-16T13:49:20.308Z,19.54
2018-10-16T13:51:50.951Z,19.49
2018-10-16T13:54:21.653Z,19.46
2018-10-16T13:56:52.309Z,19.43
2018-10-16T13:59:22.914Z,19.44
2018-10-16T14:01:53.591Z,19.38
2018-10-16T14:04:24.543Z,19.30
2018-10-16T14:06:55.218Z,19.23
2018-10-16T14:09:25.819Z,19.24
2018-10-16T14:11:56.474Z,19.29
2018-10-16T14:14:27.120Z,19.21
2018-10-16T14:16:57.846Z,19.20
2018-10-16T14:19:28.479Z,19.24
2018-10-16T14:21:59.426Z,19.26
2018-10-16T14:24:31.109Z,19.21
2018-10-16T14:27:01.876Z,19.23
2018-10-16T14:29:32.536Z,19.22
2018-10-16T14:32:03.284Z,19.31
2018-10-16T14:34:34.168Z,19.30
2018-10-16T14:37:04.900Z,19.29
2018-10-16T14:39:35.542Z,19.22
2018-10-16T14:42:07.192Z,19.15
2018-10-16T14:44:37.868Z,19.13
2018-10-16T14:47:08.821Z,19.06
2018-10-16T14:49:40.383Z,18.98
2018-10-16T14:52:14.778Z,18.92
2018-10-16T14:54:45.388Z,18.96
2018-10-16T14:57:16.085Z,18.94
2018-10-16T14:59:46.797Z,18.91
2018-10-16T15:02:17.470Z,18.85
2018-10-16T15:04:48.096Z,18.79
2018-10-16T15:07:18.774Z,18.75
2018-10-16T15:09:49.467Z,18.73
2018-10-16T15:12:31.137Z,18.74
2018-10-16T15:15:02.977Z,18.67
2018-10-16T15:17:33.720Z,18.60
2018-10-16T15:20:04.740Z,18.61
2018-10-16T15:22:35.302Z,18.60
2018-10-16T15:25:06.946Z,18.56
2018-10-16T15:27:37.644Z,18.56
2018-10-16T15:30:10.018Z,18.48
2018-10-16T15:35:12.272Z,18.22
2018-10-16T15:37:42.993Z,18.13
2018-10-16T15:40:13.840Z,18.10
2018-10-16T15:42:44.373Z,18.06
2018-10-16T15:45:15.121Z,18.00
2018-10-16T15:47:46.582Z,17.95
2018-10-16T15:50:17.316Z,17.90
2018-10-16T15:52:49.067Z,17.90
2018-10-16T15:55:19.816Z,17.97
2018-10-16T15:57:50.685Z,18.08
2018-10-16T16:00:21.162Z,17.93
2018-10-16T16:02:51.878Z,17.81
2018-10-16T16:05:22.501Z,17.74
2018-10-16T16:07:53.246Z,17.64
2018-10-16T16:10:23.971Z,17.59
2018-10-16T16:12:54.683Z,17.64
2018-10-16T16:15:25.311Z,17.66
2018-10-16T16:17:56.005Z,17.67
2018-10-16T16:20:26.659Z,17.73
2018-10-16T16:22:57.383Z,17.56
2018-10-16T16:25:28.460Z,17.44
2018-10-16T16:27:59.237Z,17.33
2018-10-16T16:30:30.232Z,17.27
2018-10-16T16:33:00.942Z,17.27
2018-10-16T16:35:31.913Z,17.26
2018-10-16T16:38:02.618Z,17.20
2018-10-16T16:40:33.257Z,17.10
2018-10-16T16:43:03.907Z,17.03
2018-10-16T16:45:34.576Z,17.05
2018-10-16T16:48:05.263Z,17.05
2018-10-16T16:50:35.984Z,16.98
2018-10-16T16:53:06.980Z,16.90
2018-10-16T16:55:37.608Z,16.86
2018-10-16T16:58:08.441Z,16.83
2018-10-16T17:00:38.983Z,16.79
2018-10-16T17:03:09.640Z,16.80
2018-10-16T17:05:40.241Z,16.79
2018-10-16T17:08:10.998Z,16.81
2018-10-16T17:10:41.644Z,16.79
2018-10-16T17:13:12.379Z,16.73
2018-10-16T17:15:43.214Z,16.67
2018-10-16T17:18:14.066Z,16.61
2018-10-16T17:20:45.748Z,16.56
2018-10-16T17:23:16.572Z,16.50
2018-10-16T17:25:47.937Z,16.48
2018-10-16T17:28:18.514Z,16.47
2018-10-16T17:30:49.232Z,16.56
2018-10-16T17:33:19.956Z,16.59
2018-10-16T17:35:50.649Z,16.61
2018-10-16T17:38:21.891Z,16.55
2018-10-16T17:40:53.182Z,16.49
2018-10-16T17:43:27.497Z,16.40
2018-10-16T17:45:58.225Z,16.35
2018-10-16T17:48:29.277Z,16.30
2018-10-16T17:50:59.974Z,16.29
2018-10-16T17:53:31.043Z,16.25
2018-10-16T17:56:01.794Z,16.26
2018-10-16T17:58:32.695Z,16.27
2018-10-16T18:01:03.346Z,16.24
2018-10-16T18:03:34.054Z,16.27
2018-10-16T18:06:05.559Z,16.23
2018-10-16T18:08:36.947Z,16.18
2018-10-16T18:11:08.181Z,16.14
2018-10-16T18:13:38.913Z,16.12
2018-10-16T18:16:09.609Z,16.09
2018-10-16T18:18:40.296Z,16.03
2018-10-16T18:21:11.012Z,16.09
2018-10-16T18:23:41.666Z,16.09
2018-10-16T18:26:12.458Z,16.11
2018-10-16T18:28:43.285Z,16.14
2018-10-16T18:31:13.929Z,16.18
2018-10-16T18:33:44.728Z,16.01
2018-10-16T18:36:15.407Z,15.89
2018-10-16T18:38:46.186Z,15.80
2018-10-16T18:41:16.898Z,15.78
2018-10-16T18:43:47.648Z,15.77
2018-10-16T18:46:18.416Z,15.71
2018-10-16T18:48:49.142Z,15.66
2018-10-16T18:51:19.833Z,15.70
2018-10-16T18:53:50.590Z,15.63
2018-10-16T18:56:21.909Z,15.59
2018-10-16T18:58:52.664Z,15.53
2018-10-16T19:01:23.365Z,15.52
2018-10-16T19:03:54.066Z,15.47
2018-10-16T19:06:24.898Z,15.44
2018-10-16T19:08:55.568Z,15.41
2018-10-16T19:11:26.281Z,15.45
2018-10-16T19:13:57.148Z,15.47
2018-10-16T19:16:27.774Z,15.46
2018-10-16T19:18:58.735Z,15.44
2018-10-16T19:21:29.444Z,15.45
2018-10-16T19:24:00.221Z,15.48
2018-10-16T19:26:31.048Z,15.36
2018-10-16T19:29:01.697Z,15.37
2018-10-16T19:31:32.886Z,15.27
2018-10-16T19:34:03.663Z,15.26
2018-10-16T19:36:34.444Z,15.32
2018-10-16T19:39:06.074Z,15.35
2018-10-16T19:41:36.748Z,15.29
2018-10-16T19:44:07.498Z,15.25
2018-10-16T19:46:38.218Z,15.15
2018-10-16T19:49:09.175Z,15.14
2018-10-16T19:51:39.970Z,15.11
2018-10-16T19:54:10.691Z,15.04
2018-10-16T19:56:41.691Z,15.04
2018-10-16T19:59:13.658Z,15.07
2018-10-16T20:01:44.315Z,15.13
2018-10-16T20:04:15.070Z,15.25
2018-10-16T20:06:45.769Z,15.26
2018-10-16T20:09:16.597Z,15.14
2018-10-16T20:11:47.349Z,15.03
2018-10-16T20:14:18.080Z,14.97
2018-10-16T20:16:48.664Z,14.92
2018-10-16T20:19:19.742Z,14.88
2018-10-16T20:21:50.498Z,15.00
2018-10-16T20:24:21.254Z,15.02
2018-10-16T20:26:51.958Z,14.97
2018-10-16T20:29:22.784Z,14.86
2018-10-16T20:31:53.509Z,14.80
2018-10-16T20:34:24.162Z,14.77
2018-10-16T20:36:55.254Z,14.86
2018-10-16T20:39:26.070Z,14.92
2018-10-16T20:41:57.777Z,14.97
2018-10-16T20:44:28.405Z,14.90
2018-10-16T20:46:59.510Z,14.77
2018-10-16T20:49:30.303Z,14.66
2018-10-16T20:52:01.378Z,14.58
2018-10-16T20:54:32.084Z,14.52
2018-10-16T20:57:02.791Z,14.52
2018-10-16T20:59:33.594Z,14.50
2018-10-16T21:02:04.340Z,14.64
2018-10-16T21:04:35.072Z,14.66
2018-10-16T21:07:05.923Z,14.60
2018-10-16T21:09:36.459Z,14.43
2018-10-16T21:12:07.271Z,14.36
2018-10-16T21:14:37.894Z,14.26
2018-10-16T21:17:08.516Z,14.23
2018-10-16T21:19:39.209Z,14.21
2018-10-16T21:22:10.069Z,14.22
2018-10-16T21:24:40.687Z,14.12
2018-10-16T21:27:12.624Z,14.02
2018-10-16T21:29:43.300Z,14.11
2018-10-16T21:32:14.044Z,14.22
2018-10-16T21:34:44.790Z,14.29
2018-10-16T21:37:16.005Z,14.16
2018-10-16T21:39:46.753Z,14.02
2018-10-16T21:42:17.753Z,13.89
2018-10-16T21:44:48.424Z,13.86
2018-10-16T21:47:19.104Z,13.86
2018-10-16T21:49:50.618Z,13.87
2018-10-16T21:52:21.260Z,13.70
2018-10-16T21:57:22.657Z,13.47
2018-10-16T21:59:53.306Z,13.42
2018-10-16T22:02:41.494Z,13.43
2018-10-16T22:05:12.650Z,13.43
2018-10-16T22:07:43.622Z,13.38
2018-10-16T22:10:14.417Z,13.33
2018-10-16T22:12:46.935Z,13.31
2018-10-16T22:15:18.264Z,13.31
2018-10-16T22:17:49.365Z,13.28
2018-10-16T22:20:20.138Z,13.32
2018-10-16T22:22:50.809Z,13.33
2018-10-16T22:25:21.612Z,13.28
2018-10-16T22:27:52.365Z,13.27
2018-10-16T22:30:23.437Z,13.29
2018-10-16T22:32:54.113Z,13.23
2018-10-16T22:35:24.810Z,13.14
2018-10-16T22:37:55.440Z,13.02
2018-10-16T22:40:26.116Z,12.99
2018-10-16T22:42:56.971Z,12.96
2018-10-16T22:45:27.674Z,12.97
2018-10-16T22:47:59.237Z,13.03
2018-10-16T22:50:30.443Z,12.98
2018-10-16T22:53:01.172Z,12.88
2018-10-16T22:55:34.838Z,12.87
2018-10-16T22:58:05.593Z,12.86
2018-10-16T23:00:36.359Z,12.80
2018-10-16T23:03:07.131Z,12.73
2018-10-16T23:05:37.817Z,12.66
2018-10-16T23:08:09.609Z,12.63
2018-10-16T23:10:40.861Z,12.63
2018-10-16T23:13:12.144Z,12.71
2018-10-16T23:15:44.005Z,12.79
2018-10-16T23:18:15.888Z,12.80
2018-10-16T23:20:51.167Z,12.72
2018-10-16T23:23:22.108Z,12.66
2018-10-16T23:25:54.073Z,12.71
2018-10-16T23:28:25.207Z,12.80
2018-10-16T23:30:56.617Z,12.81
2018-10-16T23:33:29.516Z,12.71
2018-10-16T23:36:01.685Z,12.58
2018-10-16T23:38:33.020Z,12.49
2018-10-16T23:41:04.251Z,12.37
2018-10-16T23:43:36.446Z,12.35
2018-10-16T23:46:11.572Z,12.43
2018-10-16T23:48:44.616Z,12.56
2018-10-16T23:51:15.825Z,12.24
2018-10-16T23:53:47.674Z,12.63
2018-10-16T23:56:18.615Z,12.55
2018-10-16T23:58:50.848Z,12.56
